Time;durP1;ratioP1;P1;durP2;ratioP2;P2;SDS_P1;SDS_P2;PMS_P1;PMS_P2;Temp;Humidity;BMP_temperature;BMP_pressure;BME280_temperature;BME280_humidity;BME280_pressure;Samples;Min_cycle;Max_cycle;Signal;HPM_P1;HPM_P2
2022/03/29 00:01:48;;;;;;;13.30;6.57;;;;;;;9.84;64.64;100213.75;5569882;32;33908;-64
2022/03/29 00:04:51;;;;;;;14.98;6.68;;;;;;;9.72;65.37;100221.22;5569799;32;34622;-64
2022/03/29 00:07:54;;;;;;;14.52;7.45;;;;;;;9.84;65.24;100225.16;5569929;32;34366;-64
2022/03/29 00:10:57;;;;;;;14.32;7.53;;;;;;;9.75;65.40;100217.41;5568585;32;34072;-64
2022/03/29 00:14:02;;;;;;;15.88;6.60;;;;;;;9.74;65.50;100207.78;5569760;32;34619;-64
2022/03/29 00:17:05;;;;;;;13.68;7.47;;;;;;;9.64;65.89;100205.31;5569752;32;34013;-64
2022/03/29 00:20:08;;;;;;;16.08;7.78;;;;;;;9.49;66.50;100202.50;5569713;32;33948;-64
2022/03/29 00:23:11;;;;;;;17.05;7.40;;;;;;;9.42;66.82;100198.03;5569754;32;34611;-64
2022/03/29 00:26:15;;;;;;;13.85;7.40;;;;;;;9.34;67.46;100195.38;5569459;32;34878;-64
2022/03/29 00:29:18;;;;;;;16.42;7.50;;;;;;;9.40;67.04;100200.84;5569495;32;34752;-64
2022/03/29 00:32:21;;;;;;;16.33;7.30;;;;;;;9.36;67.12;100186.28;5569641;32;34448;-64
2022/03/29 00:35:24;;;;;;;13.57;7.55;;;;;;;9.27;67.61;100176.69;5569504;32;34437;-64
2022/03/29 00:38:27;;;;;;;15.23;8.07;;;;;;;9.48;67.18;100169.09;5569468;32;33991;-64
2022/03/29 00:41:30;;;;;;;14.02;7.75;;;;;;;9.50;66.81;100168.91;5569473;32;34044;-64
2022/03/29 00:44:36;;;;;;;15.43;7.50;;;;;;;9.66;66.33;100165.41;5569282;32;34040;-64
2022/03/29 00:47:38;;;;;;;15.30;7.57;;;;;;;9.68;66.21;100161.63;5569375;32;33968;-64
2022/03/29 00:50:43;;;;;;;14.57;6.85;;;;;;;9.43;67.02;100167.94;5555735;32;34389;-64
2022/03/29 00:53:48;;;;;;;15.18;7.62;;;;;;;9.22;67.68;100160.47;5569205;32;34004;-64
2022/03/29 00:56:50;;;;;;;14.10;7.07;;;;;;;9.20;68.45;100154.50;5555447;32;34369;-64
2022/03/29 00:59:54;;;;;;;11.38;6.65;;;;;;;9.37;67.74;100142.09;5555535;32;34889;-63
2022/03/29 01:02:58;;;;;;;11.12;7.53;;;;;;;9.52;66.80;100149.22;5569221;32;34099;-64
2022/03/29 01:06:01;;;;;;;15.07;7.10;;;;;;;9.53;66.84;100142.09;5569352;32;34436;-64
2022/03/29 01:09:07;;;;;;;21.00;7.32;;;;;;;9.42;67.21;100132.66;5569028;32;33926;-64
2022/03/29 01:12:10;;;;;;;16.02;7.60;;;;;;;9.45;66.93;100128.84;5568902;32;35157;-63
2022/03/29 01:15:13;;;;;;;15.88;7.25;;;;;;;9.42;66.97;100127.38;5555263;32;35174;-64
2022/03/29 01:18:18;;;;;;;13.55;7.57;;;;;;;9.36;67.21;100125.37;5568920;32;33939;-63
2022/03/29 01:21:25;;;;;;;13.80;7.53;;;;;;;9.39;67.04;100124.25;5569752;32;34012;-64
2022/03/29 01:24:28;;;;;;;17.62;7.35;;;;;;;9.15;67.93;100131.16;5571669;32;34038;-64
2022/03/29 01:27:32;;;;;;;17.60;7.55;;;;;;;8.93;68.46;100130.97;5571132;32;34545;-64
2022/03/29 01:30:35;;;;;;;17.58;7.62;;;;;;;8.78;69.02;100127.31;5571086;32;33944;-63
2022/03/29 01:33:40;;;;;;;13.62;7.15;;;;;;;8.67;69.64;100123.16;5571240;32;34683;-64
2022/03/29 01:36:43;;;;;;;12.45;6.95;;;;;;;8.56;69.99;100126.94;5571310;32;34420;-64
2022/03/29 01:39:45;;;;;;;14.73;7.25;;;;;;;8.46;70.36;100133.34;5557471;32;34562;-64
2022/03/29 01:42:51;;;;;;;17.05;7.55;;;;;;;8.37;70.60;100123.75;5557382;32;34676;-64
2022/03/29 01:45:53;;;;;;;14.55;6.95;;;;;;;8.45;71.26;100103.44;5557423;32;34333;-64
2022/03/29 01:48:57;;;;;;;16.33;6.95;;;;;;;9.06;68.24;100099.56;5570926;31;34551;-64
2022/03/29 01:52:01;;;;;;;13.25;7.68;;;;;;;9.26;67.07;100092.13;5571484;32;34645;-64
2022/03/29 01:55:04;;;;;;;15.30;7.65;;;;;;;9.23;66.99;100081.88;5571021;32;34031;-64
2022/03/29 01:58:07;;;;;;;13.70;7.05;;;;;;;8.95;67.89;100089.34;5570915;32;34266;-63
2022/03/29 02:01:10;;;;;;;13.85;8.05;;;;;;;8.73;69.17;100086.31;5571072;32;34007;-64
2022/03/29 02:04:14;;;;;;;15.30;7.37;;;;;;;8.86;68.73;100071.81;5570977;32;33997;-64
2022/03/29 02:07:16;;;;;;;14.85;7.90;;;;;;;9.10;67.52;100064.66;5557181;32;33908;-64
2022/03/29 02:10:21;;;;;;;16.00;8.18;;;;;;;9.01;67.83;100067.47;5570926;32;33924;-63
2022/03/29 02:13:23;;;;;;;15.10;7.70;;;;;;;8.84;68.50;100079.91;5570898;32;34273;-65
2022/03/29 02:16:26;;;;;;;15.00;7.53;;;;;;;8.96;68.06;100072.44;5570899;32;34290;-64
2022/03/29 02:19:29;;;;;;;11.65;7.10;;;;;;;8.86;68.52;100046.16;5570920;32;33939;-64
2022/03/29 02:22:33;;;;;;;13.30;7.80;;;;;;;8.97;67.87;100045.00;5557184;32;34089;-64
2022/03/29 02:25:36;;;;;;;16.45;7.90;;;;;;;8.88;68.25;100040.72;5570747;32;33908;-64
2022/03/29 02:28:39;;;;;;;16.10;7.70;;;;;;;8.89;68.18;100045.00;5565671;32;154843;-64
2022/03/29 02:31:41;;;;;;;15.88;8.00;;;;;;;8.65;68.79;100051.13;5570430;32;33909;-65
2022/03/29 02:34:47;;;;;;;16.35;7.70;;;;;;;8.65;69.20;100053.75;5570331;32;35266;-65
2022/03/29 02:37:50;;;;;;;13.80;8.20;;;;;;;8.72;68.97;100055.56;5570753;32;34666;-65
2022/03/29 02:40:57;;;;;;;16.58;8.15;;;;;;;8.69;68.98;100053.25;5570651;32;33943;-64
2022/03/29 02:44:00;;;;;;;19.58;8.30;;;;;;;8.72;68.86;100049.44;5570922;32;35257;-64
2022/03/29 02:47:03;;;;;;;20.00;8.70;;;;;;;8.70;68.76;100048.81;5570647;32;34550;-63
2022/03/29 02:50:06;;;;;;;13.35;7.53;;;;;;;8.70;68.70;100052.28;5570463;32;33912;-64
2022/03/29 02:53:09;;;;;;;19.30;8.23;;;;;;;8.75;68.48;100027.97;5570675;32;34006;-64
2022/03/29 02:56:11;;;;;;;15.02;8.35;;;;;;;8.77;68.26;100031.28;5570477;32;34304;-64
2022/03/29 02:59:14;;;;;;;16.12;9.10;;;;;;;8.71;68.51;100035.41;5570760;32;34111;-64
2022/03/29 03:02:18;;;;;;;14.60;8.18;;;;;;;8.68;68.61;100040.19;5570528;32;34145;-63
2022/03/29 03:05:24;;;;;;;17.15;8.15;;;;;;;8.66;68.77;100031.62;5570399;32;35375;-65
2022/03/29 03:08:27;;;;;;;13.48;7.85;;;;;;;8.56;69.11;100039.69;5570467;32;34629;-64
2022/03/29 03:11:30;;;;;;;13.50;7.50;;;;;;;8.44;69.89;100035.69;5556836;32;33984;-64
2022/03/29 03:14:32;;;;;;;19.33;7.93;;;;;;;8.45;69.67;100032.06;5570205;32;33946;-64
2022/03/29 03:17:35;;;;;;;16.10;8.35;;;;;;;8.38;70.12;100024.94;5570294;32;34026;-64
2022/03/29 03:20:39;;;;;;;14.87;7.45;;;;;;;8.19;70.86;100026.84;5570664;32;34739;-65
2022/03/29 03:23:41;;;;;;;14.95;7.68;;;;;;;7.99;71.96;100024.66;5570341;32;33895;-64
2022/03/29 03:26:44;;;;;;;16.40;7.85;;;;;;;8.11;71.46;100026.84;5570292;32;33956;-63
2022/03/29 03:29:47;;;;;;;14.35;8.02;;;;;;;8.23;71.11;100027.34;5569937;31;34828;-64
2022/03/29 03:32:49;;;;;;;15.05;8.15;;;;;;;8.20;71.11;100012.66;5570169;32;34019;-64
2022/03/29 03:35:53;;;;;;;17.65;7.90;;;;;;;8.17;71.35;100009.53;5570144;32;34391;-64
2022/03/29 03:38:56;;;;;;;14.25;7.32;;;;;;;8.19;71.40;100013.63;5570026;32;34083;-64
2022/03/29 03:41:59;;;;;;;29.42;8.18;;;;;;;8.08;71.63;100019.25;5570292;32;34487;-64
2022/03/29 03:45:03;;;;;;;11.50;7.32;;;;;;;8.21;71.85;100013.50;5569882;32;34580;-65
2022/03/29 03:48:06;;;;;;;14.73;8.05;;;;;;;8.09;71.75;100006.84;5570152;32;34004;-64
2022/03/29 03:51:09;;;;;;;20.37;8.43;;;;;;;8.02;72.17;100006.66;5570141;32;34131;-65
2022/03/29 03:54:12;;;;;;;15.75;8.02;;;;;;;7.91;72.65;100011.41;5556395;32;33954;-64
2022/03/29 03:57:15;;;;;;;20.77;8.60;;;;;;;7.77;73.60;100011.03;5570029;32;34473;-65
2022/03/29 04:00:21;;;;;;;14.38;7.47;;;;;;;7.80;73.51;100008.06;5570139;32;34591;-65
2022/03/29 04:03:23;;;;;;;14.60;8.13;;;;;;;7.95;72.86;100007.44;5569943;32;34640;-65
2022/03/29 04:06:26;;;;;;;14.18;8.02;;;;;;;7.94;72.54;100009.25;5569873;32;33959;-64
2022/03/29 04:09:29;;;;;;;14.05;8.00;;;;;;;7.97;72.29;100002.84;5570262;32;33889;-65
2022/03/29 04:12:33;;;;;;;12.73;7.55;;;;;;;7.78;73.02;100001.28;5569805;32;34299;-65
2022/03/29 04:15:35;;;;;;;14.87;7.70;;;;;;;7.76;73.10;99990.06;5569800;32;33934;-65
2022/03/29 04:18:38;;;;;;;14.02;7.60;;;;;;;7.87;72.68;99989.78;5569815;32;33963;-65
2022/03/29 04:21:41;;;;;;;13.95;8.30;;;;;;;7.85;72.68;99997.84;5570109;32;34754;-65
2022/03/29 04:24:47;;;;;;;15.27;8.27;;;;;;;7.66;73.16;99995.47;5569630;32;33967;-65
2022/03/29 04:27:50;;;;;;;27.17;12.93;;;;;;;7.44;74.69;100001.31;5569628;32;34131;-65
2022/03/29 04:30:55;;;;;;;24.75;12.32;;;;;;;7.48;74.49;100000.00;5569391;31;34118;-65
2022/03/29 04:34:02;;;;;;;22.00;10.85;;;;;;;7.43;74.58;99997.84;5569930;32;33896;-65
2022/03/29 04:37:05;;;;;;;23.62;11.25;;;;;;;7.36;75.17;99991.50;5569474;32;35287;-64
2022/03/29 04:40:09;;;;;;;23.55;10.88;;;;;;;7.32;75.18;99982.25;5569145;32;34073;-65
2022/03/29 04:43:12;;;;;;;23.92;9.75;;;;;;;7.32;75.27;99989.34;5569557;32;33954;-65
2022/03/29 04:46:15;;;;;;;16.98;8.90;;;;;;;7.34;75.22;99985.59;5569391;32;34029;-65
2022/03/29 04:49:18;;;;;;;18.15;8.70;;;;;;;7.32;75.29;99976.97;5569312;32;34803;-65
2022/03/29 04:52:21;;;;;;;18.23;8.40;;;;;;;7.33;75.13;99981.28;5569295;32;34696;-64
2022/03/29 04:55:24;;;;;;;21.25;8.10;;;;;;;7.32;75.19;99981.44;5554816;32;33902;-64
2022/03/29 04:58:26;;;;;;;13.70;7.40;;;;;;;7.29;75.31;99976.47;5569341;32;34645;-64
2022/03/29 05:01:29;;;;;;;20.12;8.38;;;;;;;7.32;75.48;99976.16;5569031;32;34846;-64
2022/03/29 05:04:32;;;;;;;19.98;8.40;;;;;;;7.29;75.35;99976.47;5569048;32;34386;-65
2022/03/29 05:07:35;;;;;;;19.98;8.85;;;;;;;7.26;75.61;99976.81;5555177;32;33971;-65
2022/03/29 05:10:38;;;;;;;16.87;8.55;;;;;;;7.32;75.54;99973.50;5555089;32;34052;-65
2022/03/29 05:13:41;;;;;;;19.77;8.30;;;;;;;7.37;75.29;99977.34;5568785;32;35171;-65
2022/03/29 05:16:43;;;;;;;16.23;8.85;;;;;;;7.50;75.08;99979.56;5568654;32;35229;-65
2022/03/29 05:19:46;;;;;;;18.30;8.48;;;;;;;7.60;74.51;99976.81;5568462;32;34148;-65
2022/03/29 05:22:51;;;;;;;23.25;9.50;;;;;;;7.72;74.18;99973.72;5555001;32;33890;-65
2022/03/29 05:25:54;;;;;;;22.55;9.60;;;;;;;7.96;72.75;99980.88;5568349;32;34670;-66
2022/03/29 05:28:56;;;;;;;16.52;9.02;;;;;;;8.10;72.32;99976.78;5568184;32;34017;-66
2022/03/29 05:32:00;;;;;;;21.85;8.95;;;;;;;8.15;72.25;99985.87;5568283;32;34207;-65
2022/03/29 05:35:07;;;;;;;24.05;9.02;;;;;;;8.21;71.79;99982.59;5568436;32;34645;-66
2022/03/29 05:38:10;;;;;;;13.68;9.07;;;;;;;8.32;70.89;99981.50;5568263;32;34063;-66
2022/03/29 05:41:15;;;;;;;18.42;9.10;;;;;;;8.41;70.33;99974.41;5568381;32;34060;-65
2022/03/29 05:44:18;;;;;;;21.40;9.50;;;;;;;8.49;69.87;99980.53;5568178;32;34651;-65
2022/03/29 05:50:42;;;;;;;28.85;8.90;;;;;;;8.69;69.33;99973.09;5568159;32;34030;-66
2022/03/29 05:53:45;;;;;;;26.12;10.00;;;;;;;8.84;68.65;99971.44;5567920;32;33997;-65
2022/03/29 05:56:49;;;;;;;22.90;9.38;;;;;;;9.00;68.20;99978.53;5567614;32;33980;-65
2022/03/29 05:59:52;;;;;;;27.33;9.75;;;;;;;9.20;67.75;99981.66;5568043;32;34308;-66
2022/03/29 06:02:55;;;;;;;26.90;9.18;;;;;;;9.28;67.24;99976.34;5567760;32;34137;-66
2022/03/29 06:05:57;;;;;;;26.45;9.98;;;;;;;9.49;66.87;99968.66;5566901;32;35296;-65
2022/03/29 06:09:00;;;;;;;21.52;10.18;;;;;;;9.63;65.98;99970.59;5569313;32;34040;-66
2022/03/29 06:12:05;;;;;;;31.40;10.70;;;;;;;9.71;65.91;99980.34;5570631;32;34057;-66
2022/03/29 06:15:08;;;;;;;23.40;9.70;;;;;;;9.92;64.68;99977.94;5556775;32;33964;-66
2022/03/29 06:18:11;;;;;;;18.20;9.63;;;;;;;10.17;64.43;99979.44;5570413;32;34035;-65
2022/03/29 06:21:22;;;;;;;22.90;10.40;;;;;;;10.27;62.95;99976.59;5570720;32;33980;-65
2022/03/29 06:24:26;;;;;;;25.73;10.82;;;;;;;10.46;62.28;99965.50;5570150;32;34649;-65
2022/03/29 06:27:29;;;;;;;20.88;9.73;;;;;;;10.71;61.60;99974.09;5570344;32;34040;-65
2022/03/29 06:30:33;;;;;;;20.50;10.45;;;;;;;10.99;60.52;99979.69;5557003;32;34573;-65
2022/03/29 06:33:35;;;;;;;22.70;10.48;;;;;;;11.33;59.78;99975.50;5570206;32;34167;-65
2022/03/29 06:36:38;;;;;;;21.98;10.45;;;;;;;11.72;58.42;99967.28;5556815;32;32444;-65
2022/03/29 06:39:41;;;;;;;21.20;10.98;;;;;;;11.66;57.69;99964.53;5556853;32;33983;-65
2022/03/29 06:42:44;;;;;;;17.87;10.07;;;;;;;12.05;56.42;99959.69;5570132;32;34178;-66
2022/03/29 06:45:47;;;;;;;27.00;9.98;;;;;;;12.33;55.32;99959.00;5570111;32;33990;-65
2022/03/29 06:48:50;;;;;;;28.58;9.95;;;;;;;12.83;53.85;99952.69;5570101;32;34094;-65
2022/03/29 06:51:52;;;;;;;23.30;11.30;;;;;;;12.88;53.87;99953.75;5570263;32;33912;-66
2022/03/29 06:54:55;;;;;;;22.67;10.77;;;;;;;13.44;51.55;99951.09;5556678;32;34432;-65
2022/03/29 06:57:57;;;;;;;24.30;10.70;;;;;;;14.45;49.37;99944.91;5570484;32;34597;-66
2022/03/29 07:01:03;;;;;;;24.50;11.15;;;;;;;14.78;48.80;99944.94;5570538;32;33970;-66
2022/03/29 07:04:08;;;;;;;17.42;10.52;;;;;;;15.06;47.67;99947.37;5570114;32;34108;-66
2022/03/29 07:07:11;;;;;;;25.90;11.00;;;;;;;15.00;47.71;99951.72;5569967;32;34045;-66
2022/03/29 07:13:37;;;;;;;19.40;10.27;;;;;;;15.98;44.27;99949.81;5570198;32;33901;-65
2022/03/29 07:16:42;;;;;;;18.40;10.35;;;;;;;14.48;47.74;99943.66;5570338;32;34032;-65
2022/03/29 07:19:46;;;;;;;19.42;10.38;;;;;;;15.45;45.79;99941.13;5569627;32;34742;-65
2022/03/29 07:22:50;;;;;;;22.73;10.27;;;;;;;15.71;44.81;99938.41;5570100;32;34367;-65
2022/03/29 07:25:53;;;;;;;22.70;10.38;;;;;;;15.15;45.66;99932.78;5570028;32;34098;-65
2022/03/29 07:28:56;;;;;;;23.55;11.45;;;;;;;15.90;44.39;99942.03;5569990;32;34289;-66
2022/03/29 07:32:00;;;;;;;22.10;11.12;;;;;;;17.20;40.58;99947.53;5570392;32;34193;-66
2022/03/29 07:35:02;;;;;;;26.27;10.93;;;;;;;16.92;41.07;99939.13;5556431;32;34132;-66
2022/03/29 07:38:09;;;;;;;25.70;10.57;;;;;;;16.80;41.96;99940.87;5570362;32;34086;-66
2022/03/29 07:41:12;;;;;;;18.62;10.15;;;;;;;17.05;40.37;99930.97;5570131;32;33967;-66
2022/03/29 07:44:14;;;;;;;22.45;10.65;;;;;;;16.78;41.69;99932.25;5569979;32;34322;-66
2022/03/29 07:47:19;;;;;;;24.85;11.50;;;;;;;16.81;40.98;99921.91;5570250;32;34621;-66
2022/03/29 07:50:29;;;;;;;20.05;10.65;;;;;;;18.00;39.28;99926.84;5570258;32;34661;-66
2022/03/29 07:53:36;;;;;;;16.75;9.82;;;;;;;19.56;36.07;99930.94;5569935;32;34338;-66
2022/03/29 07:56:39;;;;;;;18.98;9.82;;;;;;;20.54;33.36;99927.97;5569909;32;34709;-67
2022/03/29 07:59:42;;;;;;;20.33;10.23;;;;;;;18.42;36.63;99929.53;5569844;32;33997;-67
2022/03/29 08:02:44;;;;;;;19.00;9.50;;;;;;;18.08;37.65;99923.81;5569706;32;34563;-66
2022/03/29 08:05:49;;;;;;;20.45;10.48;;;;;;;17.82;38.30;99924.16;5569542;32;34148;-66
2022/03/29 08:08:53;;;;;;;15.20;9.40;;;;;;;18.01;37.63;99923.09;5543115;32;32630;-66
2022/03/29 08:11:57;;;;;;;19.00;9.55;;;;;;;18.60;36.85;99924.13;5569701;32;33972;-67
2022/03/29 08:15:00;;;;;;;19.02;9.90;;;;;;;18.90;36.03;99918.66;5569622;32;35306;-67
2022/03/29 08:18:03;;;;;;;17.35;10.52;;;;;;;19.25;35.29;99921.34;5555725;32;33913;-67
2022/03/29 08:21:48;;;;;;;18.45;10.07;;;;;;;21.65;31.97;99921.56;5569471;32;34085;-67
2022/03/29 08:24:29;;;;;;;23.95;10.38;;;;;;;22.49;29.87;99911.16;5569507;32;33993;-66
2022/03/29 08:27:32;;;;;;;21.27;10.48;;;;;;;23.45;28.22;99908.38;5569342;32;34041;-67
2022/03/29 08:30:36;;;;;;;20.17;10.05;;;;;;;24.11;27.66;99918.34;5568055;32;34580;-67
2022/03/29 08:33:38;;;;;;;23.02;10.18;;;;;;;22.37;28.90;99908.63;5569317;32;33942;-68
2022/03/29 08:36:43;;;;;;;19.25;10.40;;;;;;;23.04;28.98;99912.72;5569266;32;34410;-67
2022/03/29 08:39:45;;;;;;;19.75;10.48;;;;;;;21.48;30.89;99899.22;5569289;32;33981;-67
2022/03/29 08:42:54;;;;;;;31.08;10.68;;;;;;;22.34;29.61;99892.94;5569456;32;33958;-68
2022/03/29 08:45:58;;;;;;;22.62;10.18;;;;;;;22.61;29.03;99889.38;5569286;32;35195;-67
2022/03/29 08:49:03;;;;;;;25.83;10.85;;;;;;;22.88;28.62;99885.56;5569343;32;33913;-67
2022/03/29 08:52:07;;;;;;;21.02;9.55;;;;;;;22.92;29.07;99880.44;5568526;32;35287;-67
2022/03/29 08:55:10;;;;;;;16.02;8.95;;;;;;;24.29;26.23;99892.69;5568767;32;34056;-67
2022/03/29 08:58:15;;;;;;;19.70;9.70;;;;;;;22.75;27.87;99883.28;5555033;32;33561;-67
2022/03/29 09:01:19;;;;;;;18.60;10.10;;;;;;;23.99;26.57;99877.16;5555331;32;35232;-67
2022/03/29 09:04:25;;;;;;;21.90;9.98;;;;;;;23.38;27.55;99879.59;5569019;32;34136;-67
2022/03/29 09:07:45;;;;;;;18.73;10.40;;;;;;;21.35;30.18;99872.63;5568702;32;34273;-67
2022/03/29 09:10:50;;;;;;;23.67;10.13;;;;;;;20.44;31.74;99872.03;5568738;32;33971;-67
2022/03/29 09:14:03;;;;;;;23.38;10.50;;;;;;;20.55;31.46;99862.25;5568590;32;34273;-68
2022/03/29 09:17:43;;;;;;;17.15;9.45;;;;;;;19.80;32.84;99863.31;5568547;32;34765;-67
2022/03/29 09:21:04;;;;;;;20.12;9.68;;;;;;;19.78;31.83;99857.38;5568102;32;35457;-68
2022/03/29 09:24:11;;;;;;;23.50;9.60;;;;;;;19.70;31.69;99856.97;5568306;32;34040;-67
2022/03/29 09:27:15;;;;;;;19.52;9.63;;;;;;;19.81;31.83;99848.00;5568144;32;34133;-67
2022/03/29 09:30:41;;;;;;;20.92;9.85;;;;;;;19.62;32.05;99843.88;5567981;32;34043;-66
2022/03/29 09:33:45;;;;;;;21.77;10.13;;;;;;;19.60;32.36;99846.00;5568708;32;33927;-66
2022/03/29 09:36:50;;;;;;;19.85;9.50;;;;;;;19.78;32.62;99848.50;5568263;32;34138;-67
2022/03/29 09:39:53;;;;;;;19.30;9.75;;;;;;;20.34;31.80;99836.84;5567892;32;34079;-67
2022/03/29 09:43:08;;;;;;;22.23;10.00;;;;;;;19.80;32.29;99832.94;5569591;32;34132;-67
2022/03/29 09:46:11;;;;;;;22.58;10.23;;;;;;;20.11;32.32;99829.72;5571107;32;35289;-66
2022/03/29 09:49:13;;;;;;;19.62;9.27;;;;;;;19.77;32.63;99831.53;5570977;31;34574;-66
2022/03/29 09:52:18;;;;;;;19.48;10.15;;;;;;;20.11;32.23;99826.19;5557365;32;34435;-66
2022/03/29 09:55:22;;;;;;;19.17;9.45;;;;;;;20.69;31.19;99818.53;5571028;32;33946;-67
2022/03/29 09:58:25;;;;;;;20.60;10.68;;;;;;;21.07;31.00;99819.59;5557400;32;35207;-67
2022/03/29 10:01:28;;;;;;;19.15;10.07;;;;;;;20.90;30.75;99824.22;5544390;32;33829;-67
2022/03/29 10:04:34;;;;;;;18.58;9.18;;;;;;;21.37;30.41;99820.03;5570906;32;34696;-66
2022/03/29 10:07:42;;;;;;;20.35;9.40;;;;;;;21.34;30.23;99807.06;5570812;32;34541;-67
2022/03/29 10:10:46;;;;;;;11.90;6.90;;;;;;;20.71;30.72;99802.13;5570537;32;34149;-67
2022/03/29 10:13:50;;;;;;;14.52;7.07;;;;;;;20.62;26.54;99785.53;5556859;32;33891;-66
2022/03/29 10:16:54;;;;;;;13.45;7.10;;;;;;;21.16;26.43;99799.25;5556978;32;33926;-66
2022/03/29 10:19:57;;;;;;;15.70;7.40;;;;;;;21.82;25.49;99790.03;5570645;32;34804;-66
2022/03/29 10:23:01;;;;;;;15.27;7.70;;;;;;;22.09;24.91;99780.03;5570196;32;34315;-66
2022/03/29 10:26:06;;;;;;;14.38;7.55;;;;;;;21.80;25.37;99778.66;5570225;32;34368;-66
2022/03/29 10:29:10;;;;;;;12.35;6.87;;;;;;;22.10;25.18;99776.25;5570240;32;33965;-66
2022/03/29 10:32:27;;;;;;;13.70;7.57;;;;;;;22.12;24.84;99773.31;5570626;32;34766;-66
2022/03/29 10:35:30;;;;;;;15.93;7.65;;;;;;;21.81;23.57;99763.25;5570551;32;34414;-66
2022/03/29 10:38:48;;;;;;;11.98;6.35;;;;;;;21.59;24.18;99757.94;5570926;32;34437;-66
2022/03/29 10:41:51;;;;;;;13.68;6.87;;;;;;;21.49;24.83;99745.16;5570433;32;34791;-65
2022/03/29 10:45:17;;;;;;;18.15;8.65;;;;;;;21.49;24.50;99742.47;5570242;32;34123;-65
2022/03/29 10:48:27;;;;;;;15.32;7.95;;;;;;;21.06;24.64;99740.56;5570213;32;34616;-65
2022/03/29 10:51:30;;;;;;;19.58;8.70;;;;;;;20.92;25.03;99743.91;5557133;32;34722;-66
2022/03/29 10:54:36;;;;;;;17.23;8.52;;;;;;;21.04;25.11;99731.12;5555943;32;34282;-66
2022/03/29 10:57:38;;;;;;;16.42;8.27;;;;;;;21.54;24.73;99736.28;5556313;32;33906;-67
2022/03/29 11:00:46;;;;;;;18.15;7.80;;;;;;;22.13;23.84;99728.97;5569687;32;34167;-66
2022/03/29 11:04:07;;;;;;;16.48;8.65;;;;;;;23.55;22.42;99727.00;5569833;32;34024;-66
2022/03/29 11:07:14;;;;;;;15.85;7.87;;;;;;;24.29;21.50;99726.50;5569867;32;34437;-66
2022/03/29 11:10:19;;;;;;;17.17;8.13;;;;;;;25.32;20.45;99713.94;5569644;32;33883;-66
2022/03/29 11:13:30;;;;;;;17.15;7.82;;;;;;;25.23;20.37;99702.03;5570132;32;34344;-67
2022/03/29 11:16:33;;;;;;;15.82;7.78;;;;;;;25.08;20.04;99700.22;5570212;32;34020;-67
2022/03/29 11:19:49;;;;;;;17.87;8.18;;;;;;;24.68;20.26;99693.06;5570469;32;34020;-67
2022/03/29 11:22:52;;;;;;;13.15;7.18;;;;;;;25.47;19.25;99680.44;5570130;32;33866;-67
2022/03/29 11:25:55;;;;;;;14.98;7.85;;;;;;;26.65;18.04;99671.75;5570160;32;34064;-67
2022/03/29 11:29:00;;;;;;;16.23;8.30;;;;;;;27.98;16.58;99672.28;5569940;32;34268;-67
2022/03/29 11:32:04;;;;;;;13.35;8.30;;;;;;;25.88;18.01;99668.19;5570226;32;34642;-67
2022/03/29 11:35:09;;;;;;;13.98;7.82;;;;;;;27.31;17.04;99660.00;5569931;32;34365;-67
2022/03/29 11:38:15;;;;;;;12.63;7.70;;;;;;;26.82;16.90;99657.66;5570517;32;34113;-67
2022/03/29 11:41:24;;;;;;;13.13;8.07;;;;;;;25.45;18.07;99642.72;5569895;32;34733;-67
2022/03/29 11:44:27;;;;;;;17.17;8.10;;;;;;;27.51;16.88;99650.75;5569583;32;34276;-68
2022/03/29 11:47:30;;;;;;;13.57;7.22;;;;;;;28.58;16.05;99642.28;5570197;32;34074;-68
2022/03/29 11:50:45;;;;;;;15.98;8.00;;;;;;;30.56;14.13;99639.12;5569840;32;34070;-68
2022/03/29 11:53:57;;;;;;;16.50;7.90;;;;;;;30.37;14.11;99629.53;5569856;32;34287;-68
2022/03/29 11:57:00;;;;;;;19.85;8.43;;;;;;;29.24;14.86;99632.69;5570157;32;34161;-68
2022/03/29 12:00:04;;;;;;;18.25;8.35;;;;;;;26.91;16.83;99628.75;5569889;32;34345;-67
2022/03/29 12:03:08;;;;;;;14.68;8.05;;;;;;;27.08;17.27;99620.87;5569605;32;34080;-67
2022/03/29 12:06:16;;;;;;;14.85;8.45;;;;;;;28.04;16.14;99611.09;5569601;32;34596;-67
2022/03/29 12:09:24;;;;;;;13.05;7.55;;;;;;;26.07;17.46;99610.38;5569433;32;33982;-67
2022/03/29 12:12:27;;;;;;;16.60;8.57;;;;;;;25.45;18.00;99601.97;5569955;32;33999;-66
2022/03/29 12:15:30;;;;;;;16.45;8.32;;;;;;;24.78;18.48;99605.41;5569233;32;34828;-66
2022/03/29 12:18:40;;;;;;;14.45;8.05;;;;;;;26.01;17.79;99601.47;5569600;32;33924;-67
2022/03/29 12:21:48;;;;;;;15.10;7.93;;;;;;;26.82;17.11;99598.59;5569372;32;35198;-68
2022/03/29 12:24:58;;;;;;;16.37;7.82;;;;;;;26.42;17.00;99598.34;5569981;32;34001;-67
2022/03/29 12:28:01;;;;;;;14.13;7.47;;;;;;;25.14;17.94;99594.34;5569497;32;34028;-67
2022/03/29 12:31:10;;;;;;;14.77;7.95;;;;;;;26.00;17.11;99594.41;5569453;32;34106;-67
2022/03/29 12:34:15;;;;;;;13.52;7.72;;;;;;;25.44;17.68;99592.22;5569577;32;34574;-67
2022/03/29 12:37:18;;;;;;;14.38;8.35;;;;;;;26.03;17.21;99585.69;5569525;32;34252;-67
2022/03/29 12:40:20;;;;;;;14.87;7.75;;;;;;;27.38;16.36;99578.75;5569454;32;35165;-67
2022/03/29 12:43:27;;;;;;;16.42;7.95;;;;;;;27.68;16.02;99569.28;5555545;32;33888;-67
2022/03/29 12:46:30;;;;;;;17.55;7.62;;;;;;;27.89;15.99;99573.22;5569245;32;34592;-68
2022/03/29 12:49:35;;;;;;;14.93;7.80;;;;;;;28.26;15.34;99558.63;5569221;32;34103;-67
2022/03/29 12:52:41;;;;;;;15.35;7.95;;;;;;;30.65;13.96;99566.03;5569067;32;34194;-67
2022/03/29 12:55:55;;;;;;;16.02;7.57;;;;;;;30.24;13.97;99551.91;5569587;32;34106;-68
2022/03/29 12:58:59;;;;;;;14.05;7.47;;;;;;;31.14;13.52;99546.75;5569222;32;34138;-68
2022/03/29 13:02:09;;;;;;;12.70;7.75;;;;;;;30.69;13.18;99532.56;5569351;32;34491;-68
2022/03/29 13:05:14;;;;;;;13.70;8.15;;;;;;;30.85;13.21;99537.22;5568926;32;34422;-68
2022/03/29 13:08:21;;;;;;;13.82;8.00;;;;;;;29.98;13.92;99529.13;5569099;32;35168;-67
2022/03/29 13:11:24;;;;;;;15.98;7.85;;;;;;;29.04;14.60;99526.63;5568963;32;34909;-68
2022/03/29 13:14:39;;;;;;;13.23;7.18;;;;;;;29.02;14.72;99523.41;5568733;32;34406;-68
2022/03/29 13:17:41;;;;;;;13.07;7.43;;;;;;;30.37;13.56;99511.84;5569818;32;34186;-68
2022/03/29 13:20:45;;;;;;;12.95;7.50;;;;;;;31.22;12.82;99513.06;5571469;32;34668;-68
2022/03/29 13:23:49;;;;;;;12.43;6.65;;;;;;;29.13;14.05;99508.38;5571041;32;34023;-68
2022/03/29 13:26:52;;;;;;;12.27;6.60;;;;;;;27.33;15.55;99507.19;5571397;32;33975;-68
2022/03/29 13:29:55;;;;;;;12.52;6.85;;;;;;;25.78;16.60;99507.16;5570941;32;34774;-67
2022/03/29 13:32:58;;;;;;;13.73;6.78;;;;;;;24.96;17.79;99514.41;5571154;32;33975;-66
2022/03/29 13:36:09;;;;;;;11.65;6.80;;;;;;;25.18;17.73;99508.53;5570885;32;33928;-67
2022/03/29 13:39:15;;;;;;;9.95;6.03;;;;;;;24.35;18.49;99506.59;5557231;32;33895;-67
2022/03/29 13:42:38;;;;;;;14.73;5.95;;;;;;;23.48;19.50;99502.53;5570753;32;35322;-66
2022/03/29 13:45:42;;;;;;;12.27;6.45;;;;;;;23.32;19.76;99490.91;5556952;32;34060;-65
2022/03/29 13:48:45;;;;;;;12.60;6.82;;;;;;;23.72;19.68;99494.66;5570471;32;35505;-67
2022/03/29 13:51:49;;;;;;;16.40;6.62;;;;;;;24.32;19.26;99482.78;5570633;32;34123;-66
2022/03/29 13:54:51;;;;;;;14.30;7.20;;;;;;;25.83;17.96;99482.66;5570515;32;33905;-68
2022/03/29 13:57:54;;;;;;;11.73;6.40;;;;;;;25.08;18.12;99479.56;5570590;32;34685;-67
2022/03/29 14:00:59;;;;;;;18.30;6.55;;;;;;;25.43;17.97;99479.25;5570483;32;33953;-66
2022/03/29 14:04:05;;;;;;;16.87;6.50;;;;;;;25.35;17.82;99470.91;5570281;32;34003;-66
2022/03/29 14:07:08;;;;;;;12.95;6.03;;;;;;;25.04;17.80;99465.75;5570698;32;34057;-67
2022/03/29 14:10:14;;;;;;;16.87;6.43;;;;;;;24.19;18.59;99467.94;5570243;32;33907;-67
2022/03/29 14:13:17;;;;;;;12.63;6.05;;;;;;;23.87;19.05;99467.50;5570502;32;33990;-66
2022/03/29 14:16:21;;;;;;;21.15;6.50;;;;;;;23.07;19.76;99465.75;5556744;32;32737;-67
2022/03/29 14:19:23;;;;;;;13.18;5.78;;;;;;;22.86;19.97;99468.47;5570335;32;34751;-66
2022/03/29 14:22:32;;;;;;;10.90;6.07;;;;;;;22.38;20.96;99460.78;5570098;32;33889;-66
2022/03/29 14:25:37;;;;;;;11.75;5.87;;;;;;;23.02;20.26;99471.16;5570021;32;34631;-66